createdAt,value
2022-10-03T00:01:54.035Z,10.80
2022-10-03T00:04:20.189Z,10.73
2022-10-03T00:06:46.294Z,10.76
2022-10-03T00:09:12.430Z,10.71
2022-10-03T00:11:38.749Z,10.72
2022-10-03T00:14:05.051Z,10.68
2022-10-03T00:16:31.155Z,10.69
2022-10-03T00:18:57.254Z,10.71
2022-10-03T00:21:23.385Z,10.65
2022-10-03T00:23:49.519Z,10.64
2022-10-03T00:26:15.631Z,10.64
2022-10-03T00:28:41.915Z,10.67
2022-10-03T00:31:08.028Z,10.57
2022-10-03T00:33:34.153Z,10.59
2022-10-03T00:36:00.258Z,10.59
2022-10-03T00:38:26.340Z,10.66
2022-10-03T00:40:52.488Z,10.63
2022-10-03T00:43:18.622Z,10.56
2022-10-03T00:45:44.703Z,10.60
2022-10-03T00:48:10.802Z,10.66
2022-10-03T00:50:36.940Z,10.71
2022-10-03T00:53:03.021Z,10.73
2022-10-03T00:55:29.117Z,10.90
2022-10-03T00:57:55.276Z,10.97
2022-10-03T01:00:21.373Z,11.01
2022-10-03T01:02:47.471Z,10.98
2022-10-03T01:05:13.580Z,10.97
2022-10-03T01:07:39.672Z,10.95
2022-10-03T01:10:05.758Z,10.96
2022-10-03T01:12:31.906Z,11.00
2022-10-03T01:14:57.988Z,11.01
2022-10-03T01:17:24.063Z,11.01
2022-10-03T01:19:50.178Z,11.02
2022-10-03T01:22:16.259Z,11.05
2022-10-03T01:24:42.347Z,11.04
2022-10-03T01:27:08.455Z,11.03
2022-10-03T01:29:34.566Z,11.03
2022-10-03T01:32:00.773Z,11.05
2022-10-03T01:34:26.892Z,11.02
2022-10-03T01:36:52.972Z,11.02
2022-10-03T01:39:19.061Z,11.04
2022-10-03T01:41:45.173Z,11.08
2022-10-03T01:44:11.270Z,11.05
2022-10-03T01:46:37.403Z,11.06
2022-10-03T01:49:04.207Z,11.08
2022-10-03T01:51:30.348Z,11.12
2022-10-03T01:53:56.450Z,11.13
2022-10-03T01:56:22.553Z,10.92
2022-10-03T01:58:48.655Z,10.87
2022-10-03T02:01:14.789Z,10.85
2022-10-03T02:03:40.992Z,10.86
2022-10-03T02:06:07.088Z,10.84
2022-10-03T02:08:33.210Z,10.85
2022-10-03T02:10:59.342Z,10.84
2022-10-03T02:13:25.433Z,10.84
2022-10-03T02:15:51.545Z,10.83
2022-10-03T02:18:17.677Z,10.86
2022-10-03T02:20:43.802Z,10.85
2022-10-03T02:23:09.880Z,10.85
2022-10-03T02:25:35.974Z,10.84
2022-10-03T02:28:02.150Z,10.83
2022-10-03T02:30:28.308Z,10.85
2022-10-03T02:32:54.904Z,10.87
2022-10-03T02:35:20.986Z,10.84
2022-10-03T02:37:47.080Z,10.87
2022-10-03T02:40:13.184Z,10.84
2022-10-03T02:42:39.277Z,10.79
2022-10-03T02:45:05.370Z,10.88
2022-10-03T02:47:31.678Z,10.83
2022-10-03T02:49:57.777Z,10.83
2022-10-03T02:52:23.880Z,10.80
2022-10-03T02:54:49.965Z,10.79
2022-10-03T02:57:16.042Z,10.81
2022-10-03T02:59:42.126Z,10.78
2022-10-03T03:02:08.279Z,10.81
2022-10-03T03:04:34.378Z,10.84
2022-10-03T03:07:00.592Z,10.84
2022-10-03T03:09:26.729Z,10.78
2022-10-03T03:11:52.821Z,10.79
2022-10-03T03:14:18.902Z,10.82
2022-10-03T03:16:45.061Z,10.80
2022-10-03T03:19:11.203Z,10.75
2022-10-03T03:21:37.674Z,10.74
2022-10-03T03:24:03.961Z,10.70
2022-10-03T03:26:30.131Z,10.61
2022-10-03T03:28:56.218Z,10.64
2022-10-03T03:31:22.396Z,10.60
2022-10-03T03:33:48.513Z,10.59
2022-10-03T03:36:14.615Z,10.61
2022-10-03T03:38:40.760Z,10.66
2022-10-03T03:41:06.862Z,10.71
2022-10-03T03:43:35.739Z,10.62
2022-10-03T03:46:02.117Z,10.56
2022-10-03T03:48:28.265Z,10.56
2022-10-03T03:50:54.537Z,10.54
2022-10-03T03:53:20.710Z,10.57
2022-10-03T03:55:46.823Z,10.48
2022-10-03T03:58:13.025Z,10.47
2022-10-03T04:00:39.171Z,10.50
2022-10-03T04:03:05.376Z,10.47
2022-10-03T04:05:31.475Z,10.48
2022-10-03T04:07:57.581Z,10.51
2022-10-03T04:10:23.665Z,10.49
2022-10-03T04:12:49.798Z,10.49
2022-10-03T04:15:15.931Z,10.54
2022-10-03T04:17:42.034Z,10.60
2022-10-03T04:20:08.128Z,10.62
2022-10-03T04:22:34.220Z,10.56
2022-10-03T04:25:00.400Z,10.64
2022-10-03T04:27:26.497Z,10.62
2022-10-03T04:29:56.640Z,10.65
2022-10-03T04:32:23.003Z,10.67
2022-10-03T04:34:49.099Z,10.65
2022-10-03T04:37:15.215Z,10.68
2022-10-03T04:39:41.309Z,10.70
2022-10-03T04:42:07.498Z,10.74
2022-10-03T04:44:33.608Z,10.72
2022-10-03T04:46:59.701Z,10.72
2022-10-03T04:49:25.803Z,10.73
2022-10-03T04:51:55.555Z,10.72
2022-10-03T04:54:21.968Z,10.73
2022-10-03T04:56:48.050Z,10.69
2022-10-03T04:59:14.144Z,10.65
2022-10-03T05:01:40.617Z,10.70
2022-10-03T05:04:06.971Z,10.66
2022-10-03T05:06:33.075Z,10.68
2022-10-03T05:08:59.161Z,10.70
2022-10-03T05:11:25.261Z,10.73
2022-10-03T05:13:51.365Z,10.79
2022-10-03T05:16:17.454Z,10.75
2022-10-03T05:18:43.569Z,10.72
2022-10-03T05:21:09.656Z,10.78
2022-10-03T05:23:35.757Z,10.78
2022-10-03T05:26:23.178Z,10.80
2022-10-03T05:28:47.911Z,10.82
2022-10-03T05:31:14.076Z,10.82
2022-10-03T05:33:40.187Z,10.85
2022-10-03T05:36:06.294Z,10.90
2022-10-03T05:38:32.380Z,10.94
2022-10-03T05:40:58.455Z,10.91
2022-10-03T05:43:25.047Z,10.96
2022-10-03T05:45:51.175Z,10.95
2022-10-03T05:48:17.290Z,10.95
2022-10-03T05:50:43.403Z,10.99
2022-10-03T05:53:09.479Z,11.00
2022-10-03T05:55:35.595Z,11.00
2022-10-03T05:58:02.675Z,11.03
2022-10-03T06:00:28.823Z,11.04
2022-10-03T06:02:55.119Z,11.02
2022-10-03T06:05:21.393Z,11.03
2022-10-03T06:07:47.487Z,10.98
2022-10-03T06:10:13.564Z,10.98
2022-10-03T06:12:39.659Z,11.01
2022-10-03T06:15:05.741Z,11.04
2022-10-03T06:17:31.885Z,11.12
2022-10-03T06:19:58.001Z,11.16
2022-10-03T06:22:24.086Z,11.23
2022-10-03T06:24:50.170Z,11.20
2022-10-03T06:27:16.265Z,11.21
2022-10-03T06:29:42.353Z,11.23
2022-10-03T06:32:08.581Z,11.19
2022-10-03T06:34:34.856Z,11.26
2022-10-03T06:37:01.075Z,11.33
2022-10-03T06:39:27.186Z,11.34
2022-10-03T06:41:53.475Z,11.31
2022-10-03T06:44:19.557Z,11.29
2022-10-03T06:46:45.685Z,11.31
2022-10-03T06:49:11.909Z,11.30
2022-10-03T06:51:39.170Z,11.33
2022-10-03T06:54:05.739Z,11.39
2022-10-03T06:56:32.101Z,11.48
2022-10-03T06:58:58.284Z,11.49
2022-10-03T07:01:24.424Z,11.47
2022-10-03T07:03:50.576Z,11.52
2022-10-03T07:06:16.722Z,11.56
2022-10-03T07:08:42.891Z,11.64
2022-10-03T07:11:09.088Z,11.72
2022-10-03T07:13:35.295Z,11.70
2022-10-03T07:18:48.546Z,11.81
2022-10-03T07:21:16.813Z,11.86
2022-10-03T07:23:43.151Z,11.92
2022-10-03T07:26:09.314Z,11.85
2022-10-03T07:28:35.612Z,11.90
2022-10-03T07:31:01.976Z,11.87
2022-10-03T07:33:28.117Z,11.92
2022-10-03T07:35:54.306Z,11.90
2022-10-03T07:38:20.396Z,11.90
2022-10-03T07:40:46.515Z,11.88
2022-10-03T07:43:12.601Z,11.82
2022-10-03T07:45:38.694Z,11.86
2022-10-03T07:48:04.799Z,11.84
2022-10-03T07:50:31.046Z,11.90
2022-10-03T07:52:57.261Z,11.89
2022-10-03T07:55:23.385Z,11.86
2022-10-03T07:57:49.475Z,11.88
2022-10-03T08:00:15.568Z,11.88
2022-10-03T08:02:42.194Z,11.93
2022-10-03T08:05:08.350Z,11.90
2022-10-03T08:07:34.423Z,11.92
2022-10-03T08:10:00.602Z,11.91
2022-10-03T08:12:26.698Z,11.91
2022-10-03T08:14:52.987Z,11.96
2022-10-03T08:17:19.159Z,12.02
2022-10-03T08:19:45.257Z,12.05
2022-10-03T08:22:11.345Z,12.09
2022-10-03T08:24:37.611Z,12.17
2022-10-03T08:27:03.930Z,12.28
2022-10-03T08:29:30.143Z,12.40
2022-10-03T08:31:56.252Z,12.47
2022-10-03T08:34:22.350Z,12.54
2022-10-03T08:36:48.430Z,12.59
2022-10-03T08:39:14.529Z,12.62
2022-10-03T08:41:41.118Z,12.63
2022-10-03T08:44:07.486Z,12.78
2022-10-03T08:46:33.623Z,12.95
2022-10-03T08:48:59.792Z,13.04
2022-10-03T08:51:25.917Z,13.09
2022-10-03T08:53:52.198Z,13.21
2022-10-03T08:56:18.290Z,13.30
2022-10-03T08:58:44.380Z,13.29
2022-10-03T09:01:10.527Z,13.33
2022-10-03T09:03:40.668Z,13.24
2022-10-03T09:06:09.102Z,13.22
2022-10-03T09:08:36.063Z,13.19
2022-10-03T09:11:02.318Z,13.22
2022-10-03T09:13:28.410Z,13.28
2022-10-03T09:15:54.683Z,13.43
2022-10-03T09:18:20.810Z,13.58
2022-10-03T09:20:46.956Z,13.71
2022-10-03T09:23:13.070Z,13.81
2022-10-03T09:25:39.148Z,13.93
2022-10-03T09:28:05.291Z,13.85
2022-10-03T09:30:31.668Z,13.97
2022-10-03T09:32:57.769Z,14.02
2022-10-03T09:35:23.866Z,13.96
2022-10-03T09:37:49.990Z,14.02
2022-10-03T09:40:17.273Z,13.98
2022-10-03T09:42:43.519Z,13.94
2022-10-03T09:45:09.622Z,13.86
2022-10-03T09:47:35.859Z,13.85
2022-10-03T09:50:02.057Z,13.97
2022-10-03T09:52:28.178Z,13.99
2022-10-03T09:54:54.397Z,14.01
2022-10-03T09:57:22.909Z,14.18
2022-10-03T09:59:49.612Z,14.36
2022-10-03T10:02:15.725Z,14.14
2022-10-03T10:04:54.986Z,14.07
2022-10-03T10:07:22.001Z,14.23
2022-10-03T10:09:48.103Z,14.34
2022-10-03T10:12:14.199Z,14.39
2022-10-03T10:14:40.309Z,14.43
2022-10-03T10:17:06.391Z,14.38
2022-10-03T10:19:32.668Z,14.39
2022-10-03T10:21:58.822Z,14.38
2022-10-03T10:24:24.901Z,14.39
2022-10-03T10:26:51.006Z,14.52
2022-10-03T10:29:17.170Z,14.72
2022-10-03T10:31:43.448Z,14.79
2022-10-03T10:34:09.715Z,14.62
2022-10-03T10:36:36.011Z,14.71
2022-10-03T10:39:02.181Z,14.55
2022-10-03T10:41:28.269Z,14.52
2022-10-03T10:43:54.370Z,14.62
2022-10-03T10:46:20.475Z,14.59
2022-10-03T10:48:46.601Z,14.77
2022-10-03T10:51:12.899Z,14.68
2022-10-03T10:53:38.989Z,14.64
2022-10-03T10:56:05.333Z,14.73
2022-10-03T10:58:31.562Z,14.61
2022-10-03T11:00:57.737Z,14.73
2022-10-03T11:03:23.861Z,14.78
2022-10-03T11:05:49.963Z,14.84
2022-10-03T11:08:16.045Z,15.00
2022-10-03T11:10:42.183Z,14.98
2022-10-03T11:13:09.272Z,14.93
2022-10-03T11:15:35.353Z,14.82
2022-10-03T11:18:01.460Z,14.76
2022-10-03T11:20:27.573Z,14.86
2022-10-03T11:22:53.657Z,14.98
2022-10-03T11:25:19.764Z,15.11
2022-10-03T11:27:45.873Z,15.08
2022-10-03T11:30:11.966Z,15.16
2022-10-03T11:32:38.050Z,15.07
2022-10-03T11:35:04.163Z,14.96
2022-10-03T11:37:30.267Z,14.95
2022-10-03T11:39:56.360Z,15.19
2022-10-03T11:42:22.488Z,15.13
2022-10-03T11:44:48.589Z,15.20
2022-10-03T11:47:14.676Z,15.20
2022-10-03T11:49:40.777Z,15.36
2022-10-03T11:52:06.886Z,15.41
2022-10-03T11:54:32.967Z,15.46
2022-10-03T11:56:59.083Z,15.57
2022-10-03T11:59:26.985Z,15.66
2022-10-03T12:01:53.232Z,15.45
2022-10-03T12:04:19.421Z,15.33
2022-10-03T12:06:45.504Z,15.40
2022-10-03T12:09:11.596Z,15.55
2022-10-03T12:11:37.894Z,15.58
2022-10-03T12:14:08.641Z,15.72
2022-10-03T12:16:37.030Z,15.83
2022-10-03T12:19:03.159Z,15.93
2022-10-03T12:21:29.236Z,16.02
2022-10-03T12:23:55.320Z,15.97
2022-10-03T12:26:21.435Z,15.85
2022-10-03T12:28:47.539Z,15.69
2022-10-03T12:31:17.039Z,15.66
2022-10-03T12:33:44.968Z,15.67
2022-10-03T12:36:11.066Z,15.75
2022-10-03T12:38:37.160Z,15.77
2022-10-03T12:41:03.262Z,15.81
2022-10-03T12:43:29.399Z,15.82
2022-10-03T12:45:55.538Z,15.83
2022-10-03T12:48:21.679Z,15.85
2022-10-03T12:50:48.086Z,15.81
2022-10-03T12:53:14.388Z,16.04
2022-10-03T12:55:40.712Z,16.12
2022-10-03T12:58:06.867Z,16.24
2022-10-03T13:00:32.999Z,16.25
2022-10-03T13:02:59.102Z,16.33
2022-10-03T13:05:25.193Z,16.30
2022-10-03T13:07:51.328Z,16.27
2022-10-03T13:10:17.431Z,16.22
2022-10-03T13:12:43.530Z,16.37
2022-10-03T13:15:09.634Z,16.07
2022-10-03T13:17:35.744Z,16.17
2022-10-03T13:20:01.836Z,16.22
2022-10-03T13:22:27.925Z,16.03
2022-10-03T13:24:54.015Z,15.89
2022-10-03T13:27:20.104Z,16.12
2022-10-03T13:29:46.186Z,16.29
2022-10-03T13:32:12.283Z,16.43
2022-10-03T13:34:38.369Z,16.26
2022-10-03T13:37:04.439Z,16.19
2022-10-03T13:39:30.543Z,16.46
2022-10-03T13:41:56.636Z,16.34
2022-10-03T13:44:22.733Z,16.20
2022-10-03T13:46:48.836Z,16.27
2022-10-03T13:49:14.926Z,16.40
2022-10-03T13:51:41.332Z,16.46
2022-10-03T13:54:08.146Z,16.61
2022-10-03T13:56:34.389Z,16.53
2022-10-03T13:59:00.537Z,16.47
2022-10-03T14:01:26.689Z,16.38
2022-10-03T14:03:53.687Z,16.29
2022-10-03T14:06:21.336Z,16.29
2022-10-03T14:08:47.473Z,16.37
2022-10-03T14:11:13.587Z,16.38
2022-10-03T14:13:39.681Z,16.38
2022-10-03T14:16:06.525Z,16.35
2022-10-03T14:18:32.656Z,16.22
2022-10-03T14:20:58.749Z,16.13
2022-10-03T14:23:24.845Z,16.20
2022-10-03T14:25:50.936Z,16.28
2022-10-03T14:28:17.101Z,16.28
2022-10-03T14:31:04.634Z,16.32
2022-10-03T14:33:29.321Z,16.27
2022-10-03T14:35:55.430Z,16.19
2022-10-03T14:38:21.521Z,16.23
2022-10-03T14:40:47.622Z,16.11
2022-10-03T14:43:13.763Z,16.15
2022-10-03T14:45:39.855Z,16.10
2022-10-03T14:48:06.004Z,16.11
2022-10-03T14:50:32.143Z,16.09
2022-10-03T14:52:58.232Z,16.25
2022-10-03T14:55:28.949Z,16.30
2022-10-03T14:58:10.248Z,16.41
2022-10-03T15:00:37.371Z,16.45
2022-10-03T15:03:03.531Z,16.34
2022-10-03T15:05:29.661Z,16.45
2022-10-03T15:07:55.769Z,16.52
2022-10-03T15:10:21.856Z,16.46
2022-10-03T15:12:47.950Z,16.27
2022-10-03T15:15:14.036Z,16.29
2022-10-03T15:17:40.961Z,16.40
2022-10-03T15:20:07.062Z,17.10
2022-10-03T15:22:33.160Z,17.58
2022-10-03T15:24:59.284Z,18.21
2022-10-03T15:27:25.365Z,18.28
2022-10-03T15:29:51.454Z,18.29
2022-10-03T15:32:17.562Z,17.59
2022-10-03T15:34:43.667Z,17.20
2022-10-03T15:37:09.789Z,17.18
2022-10-03T15:39:35.920Z,17.36
2022-10-03T15:42:02.052Z,17.31
2022-10-03T15:44:28.148Z,17.14
2022-10-03T15:46:54.246Z,16.80
2022-10-03T15:49:20.332Z,16.93
2022-10-03T15:51:46.443Z,17.64
2022-10-03T15:54:12.574Z,17.04
2022-10-03T15:56:41.658Z,16.83
2022-10-03T15:59:07.759Z,16.80
2022-10-03T16:01:33.890Z,16.53
2022-10-03T16:04:00.038Z,16.31
2022-10-03T16:06:26.143Z,16.39
2022-10-03T16:08:52.243Z,16.33
2022-10-03T16:11:18.468Z,16.09
2022-10-03T16:13:44.616Z,16.16
2022-10-03T16:16:10.814Z,16.17
2022-10-03T16:18:37.240Z,16.06
2022-10-03T16:21:03.463Z,16.08
2022-10-03T16:23:29.570Z,15.95
2022-10-03T16:25:55.739Z,15.87
2022-10-03T16:28:21.922Z,15.80
2022-10-03T16:30:48.078Z,15.79
2022-10-03T16:33:14.183Z,15.75
2022-10-03T16:35:40.274Z,15.76
2022-10-03T16:38:06.394Z,15.69
2022-10-03T16:40:32.478Z,15.69
2022-10-03T16:42:58.555Z,15.64
2022-10-03T16:45:24.838Z,15.58
2022-10-03T16:47:50.950Z,15.52
2022-10-03T16:50:17.056Z,15.28
2022-10-03T16:52:43.167Z,15.31
2022-10-03T16:55:09.260Z,15.29
2022-10-03T16:57:35.350Z,15.30
2022-10-03T17:00:01.540Z,15.18
2022-10-03T17:02:27.821Z,15.01
2022-10-03T17:04:53.999Z,14.97
2022-10-03T17:07:20.104Z,14.91
2022-10-03T17:09:46.190Z,14.84
2022-10-03T17:12:12.285Z,14.74
2022-10-03T17:14:38.392Z,14.70
2022-10-03T17:17:04.478Z,14.64
2022-10-03T17:19:30.563Z,14.55
2022-10-03T17:21:56.838Z,14.53
2022-10-03T17:24:22.911Z,14.44
2022-10-03T17:26:48.999Z,14.34
2022-10-03T17:29:15.120Z,14.33
2022-10-03T17:31:41.487Z,14.19
2022-10-03T17:34:09.432Z,14.25
2022-10-03T17:36:35.524Z,14.15
2022-10-03T17:39:01.605Z,14.01
2022-10-03T17:41:27.704Z,13.88
2022-10-03T17:43:53.970Z,13.83
2022-10-03T17:46:20.132Z,13.91
2022-10-03T17:48:46.281Z,13.80
2022-10-03T17:51:12.380Z,13.72
2022-10-03T17:53:38.461Z,13.60
2022-10-03T17:56:04.720Z,13.59
2022-10-03T17:58:30.840Z,13.51
2022-10-03T18:00:56.952Z,13.36
2022-10-03T18:03:23.111Z,13.27
2022-10-03T18:05:49.225Z,13.27
2022-10-03T18:08:15.307Z,13.25
2022-10-03T18:10:41.399Z,13.04
2022-10-03T18:13:07.501Z,13.07
2022-10-03T18:15:33.853Z,12.92
2022-10-03T18:17:59.946Z,12.87
2022-10-03T18:20:26.049Z,12.82
2022-10-03T18:22:52.134Z,12.86
2022-10-03T18:25:18.233Z,12.87
2022-10-03T18:27:44.594Z,12.75
2022-10-03T18:30:10.681Z,12.73
2022-10-03T18:32:36.796Z,12.62
2022-10-03T18:35:02.908Z,12.56
2022-10-03T18:37:28.991Z,12.59
2022-10-03T18:39:55.264Z,12.51
2022-10-03T18:42:21.373Z,12.47
2022-10-03T18:44:47.467Z,12.52
2022-10-03T18:47:13.557Z,12.49
2022-10-03T18:49:39.697Z,12.29
2022-10-03T18:52:05.793Z,12.26
2022-10-03T18:54:31.878Z,12.11
2022-10-03T18:56:57.982Z,12.15
2022-10-03T18:59:24.064Z,12.18
2022-10-03T19:01:50.265Z,12.24
2022-10-03T19:04:16.442Z,11.85
2022-10-03T19:06:42.537Z,11.78
2022-10-03T19:09:08.713Z,11.77
2022-10-03T19:11:34.822Z,11.77
2022-10-03T19:14:00.908Z,11.67
2022-10-03T19:16:27.011Z,11.65
2022-10-03T19:18:53.169Z,11.46
2022-10-03T19:21:19.286Z,11.54
2022-10-03T19:23:45.373Z,11.59
2022-10-03T19:26:11.491Z,11.56
2022-10-03T19:28:37.776Z,11.56
2022-10-03T19:31:03.956Z,11.48
2022-10-03T19:33:30.056Z,11.40
2022-10-03T19:35:56.149Z,11.43
2022-10-03T19:38:22.251Z,11.30
2022-10-03T19:40:48.380Z,11.35
2022-10-03T19:43:14.502Z,11.35
2022-10-03T19:45:40.643Z,11.37
2022-10-03T19:48:06.784Z,11.27
2022-10-03T19:50:32.886Z,11.31
2022-10-03T19:52:58.987Z,11.11
2022-10-03T19:55:25.138Z,11.07
2022-10-03T19:57:51.230Z,11.28
2022-10-03T20:00:17.320Z,11.10
2022-10-03T20:02:43.526Z,11.06
2022-10-03T20:05:09.648Z,11.15
2022-10-03T20:07:35.738Z,10.96
2022-10-03T20:10:01.853Z,11.08
2022-10-03T20:12:27.944Z,11.10
2022-10-03T20:14:54.205Z,10.97
2022-10-03T20:17:20.325Z,10.83
2022-10-03T20:19:46.443Z,10.87
2022-10-03T20:22:12.539Z,10.79
2022-10-03T20:24:38.672Z,10.86
2022-10-03T20:27:04.785Z,10.94
2022-10-03T20:29:30.875Z,10.92
2022-10-03T20:31:57.183Z,10.94
2022-10-03T20:34:23.268Z,10.96
2022-10-03T20:36:49.447Z,11.00
2022-10-03T20:39:15.544Z,10.93
2022-10-03T20:41:41.957Z,10.79
2022-10-03T20:44:08.228Z,10.64
2022-10-03T20:46:34.358Z,10.55
2022-10-03T20:49:00.475Z,10.71
2022-10-03T20:51:26.597Z,10.75
2022-10-03T20:53:52.838Z,10.73
2022-10-03T20:56:18.919Z,10.73
2022-10-03T20:58:49.081Z,10.69
2022-10-03T21:01:17.074Z,10.59
2022-10-03T21:03:43.285Z,10.58
2022-10-03T21:06:14.190Z,10.62
2022-10-03T21:08:41.029Z,10.60
2022-10-03T21:11:07.139Z,10.56
2022-10-03T21:13:33.348Z,10.55
2022-10-03T21:15:59.620Z,10.39
2022-10-03T21:18:25.762Z,10.18
2022-10-03T21:20:51.854Z,10.23
2022-10-03T21:23:17.955Z,10.36
2022-10-03T21:25:44.056Z,10.40
2022-10-03T21:28:10.194Z,10.32
2022-10-03T21:30:36.332Z,10.33
2022-10-03T21:33:02.409Z,10.33
2022-10-03T21:35:28.489Z,10.27
2022-10-03T21:37:54.659Z,10.31
2022-10-03T21:40:20.744Z,10.09
2022-10-03T21:42:46.827Z,10.02
2022-10-03T21:45:12.924Z,10.09
2022-10-03T21:47:39.022Z,10.13
2022-10-03T21:50:05.102Z,10.12
2022-10-03T21:52:31.200Z,10.02
2022-10-03T21:54:57.378Z,9.79
2022-10-03T21:57:23.469Z,9.77
2022-10-03T21:59:49.569Z,9.78
2022-10-03T22:02:15.725Z,9.74
2022-10-03T22:04:41.929Z,9.92
2022-10-03T22:07:08.043Z,9.92
2022-10-03T22:09:34.124Z,10.03
2022-10-03T22:12:00.218Z,10.08
2022-10-03T22:14:26.316Z,10.00
2022-10-03T22:16:52.406Z,9.79
2022-10-03T22:19:18.491Z,9.76
2022-10-03T22:21:44.596Z,9.71
2022-10-03T22:24:10.778Z,9.72
2022-10-03T22:26:36.879Z,9.66
2022-10-03T22:29:03.950Z,9.71
2022-10-03T22:31:30.117Z,9.72
2022-10-03T22:33:56.413Z,9.60
2022-10-03T22:36:22.520Z,9.70
2022-10-03T22:38:48.626Z,9.72
2022-10-03T22:41:14.712Z,9.51
2022-10-03T22:43:40.831Z,9.36
2022-10-03T22:46:06.966Z,9.53
2022-10-03T22:48:33.166Z,9.54
2022-10-03T22:50:59.273Z,9.58
2022-10-03T22:53:25.358Z,9.50
2022-10-03T22:55:51.446Z,9.51
2022-10-03T22:58:17.548Z,9.70
2022-10-03T23:00:43.643Z,9.49
2022-10-03T23:03:09.869Z,9.43
2022-10-03T23:05:36.059Z,9.28
2022-10-03T23:08:02.171Z,9.31
2022-10-03T23:10:28.272Z,9.25
2022-10-03T23:12:54.372Z,9.35
2022-10-03T23:15:20.452Z,9.36
2022-10-03T23:17:46.545Z,9.39
2022-10-03T23:20:12.637Z,9.40
2022-10-03T23:22:38.727Z,9.56
2022-10-03T23:25:04.820Z,9.51
2022-10-03T23:27:30.913Z,9.39
2022-10-03T23:29:57.042Z,9.36
2022-10-03T23:32:23.149Z,9.33
2022-10-03T23:34:49.262Z,9.29
2022-10-03T23:37:15.346Z,9.33
2022-10-03T23:39:41.431Z,9.23
2022-10-03T23:42:07.816Z,9.11
2022-10-03T23:44:33.902Z,9.05
2022-10-03T23:46:59.990Z,8.99
2022-10-03T23:49:26.102Z,9.04
2022-10-03T23:51:52.189Z,9.10
2022-10-03T23:54:18.289Z,9.11
2022-10-03T23:56:44.466Z,9.08
2022-10-03T23:59:10.566Z,9.15
